createdAt,value
2018-10-06T00:00:36.086Z,99.90
2018-10-06T00:03:04.569Z,99.90
2018-10-06T00:05:33.110Z,99.90
2018-10-06T00:08:01.581Z,99.90
2018-10-06T00:10:29.972Z,99.90
2018-10-06T00:12:58.362Z,99.90
2018-10-06T00:15:26.766Z,99.90
2018-10-06T00:17:55.146Z,99.90
2018-10-06T00:20:23.575Z,99.90
2018-10-06T00:22:52.028Z,99.90
2018-10-06T00:25:20.473Z,99.90
2018-10-06T00:27:48.895Z,99.90
2018-10-06T00:30:17.338Z,99.90
2018-10-06T00:32:45.733Z,99.90
2018-10-06T00:35:14.171Z,99.90
2018-10-06T00:37:42.561Z,99.90
2018-10-06T00:40:11.028Z,99.90
2018-10-06T00:42:39.422Z,99.90
2018-10-06T00:45:07.979Z,99.90
2018-10-06T00:47:36.463Z,99.90
2018-10-06T00:50:04.972Z,99.90
2018-10-06T00:52:33.383Z,99.90
2018-10-06T00:55:01.835Z,99.90
2018-10-06T00:57:30.182Z,99.90
2018-10-06T00:59:58.638Z,99.90
2018-10-06T01:02:27.065Z,99.90
2018-10-06T01:04:55.514Z,99.90
2018-10-06T01:07:23.943Z,99.90
2018-10-06T01:09:52.431Z,99.90
2018-10-06T01:12:20.821Z,99.90
2018-10-06T01:14:49.381Z,99.90
2018-10-06T01:17:17.752Z,99.90
2018-10-06T01:19:46.259Z,99.90
2018-10-06T01:22:17.545Z,99.90
2018-10-06T01:24:45.925Z,99.90
2018-10-06T01:27:14.452Z,99.90
2018-10-06T01:29:42.866Z,99.90
2018-10-06T01:32:11.242Z,99.90
2018-10-06T01:34:39.632Z,99.90
2018-10-06T01:37:08.011Z,99.90
2018-10-06T01:39:36.437Z,99.90
2018-10-06T01:42:04.929Z,99.90
2018-10-06T01:44:33.321Z,99.90
2018-10-06T01:47:01.767Z,99.90
2018-10-06T01:49:30.210Z,99.90
2018-10-06T01:51:58.637Z,99.90
2018-10-06T01:54:27.069Z,99.90
2018-10-06T01:56:55.445Z,99.90
2018-10-06T01:59:23.822Z,99.90
2018-10-06T02:01:52.207Z,99.90
2018-10-06T02:04:23.957Z,99.90
2018-10-06T02:06:52.474Z,99.90
2018-10-06T02:09:20.883Z,99.90
2018-10-06T02:11:49.296Z,99.90
2018-10-06T02:14:17.789Z,99.90
2018-10-06T02:16:46.209Z,99.90
2018-10-06T02:19:14.627Z,99.90
2018-10-06T02:21:43.191Z,99.90
2018-10-06T02:24:11.628Z,99.90
2018-10-06T02:26:40.057Z,99.90
2018-10-06T02:29:08.449Z,99.90
2018-10-06T02:31:36.901Z,99.90
2018-10-06T02:34:05.307Z,99.90
2018-10-06T02:36:33.748Z,99.90
2018-10-06T02:39:02.114Z,99.90
2018-10-06T02:41:30.517Z,99.90
2018-10-06T02:43:58.919Z,99.90
2018-10-06T02:46:27.288Z,99.90
2018-10-06T02:48:55.755Z,99.90
2018-10-06T02:51:24.188Z,99.90
2018-10-06T02:53:52.551Z,99.90
2018-10-06T02:56:20.988Z,99.90
2018-10-06T02:58:49.367Z,99.90
2018-10-06T03:01:17.774Z,99.90
2018-10-06T03:03:46.189Z,99.90
2018-10-06T03:06:14.596Z,99.90
2018-10-06T03:08:43.064Z,99.90
2018-10-06T03:11:11.424Z,99.90
2018-10-06T03:13:39.925Z,99.90
2018-10-06T03:16:08.796Z,99.90
2018-10-06T03:18:37.198Z,99.90
2018-10-06T03:21:05.716Z,99.90
2018-10-06T03:23:34.637Z,99.90
2018-10-06T03:26:03.007Z,99.90
2018-10-06T03:28:31.422Z,99.90
2018-10-06T03:30:59.858Z,99.90
2018-10-06T03:33:28.232Z,99.90
2018-10-06T03:35:56.644Z,99.90
2018-10-06T03:38:25.094Z,99.90
2018-10-06T03:40:53.560Z,99.90
2018-10-06T03:43:22.015Z,99.90
2018-10-06T03:45:50.425Z,99.90
2018-10-06T03:48:18.831Z,99.90
2018-10-06T03:50:47.248Z,99.90
2018-10-06T03:53:15.699Z,99.90
2018-10-06T03:55:44.095Z,99.90
2018-10-06T03:58:12.550Z,99.90
2018-10-06T04:00:40.925Z,99.90
2018-10-06T04:03:09.396Z,99.90
2018-10-06T04:05:37.927Z,99.90
2018-10-06T04:08:06.421Z,99.90
2018-10-06T04:10:34.985Z,99.90
2018-10-06T04:13:03.362Z,99.90
2018-10-06T04:15:31.751Z,99.90
2018-10-06T04:18:00.261Z,99.90
2018-10-06T04:20:28.749Z,99.90
2018-10-06T04:22:57.184Z,99.90
2018-10-06T04:25:25.566Z,99.90
2018-10-06T04:27:53.967Z,99.90
2018-10-06T04:30:22.393Z,99.90
2018-10-06T04:32:50.822Z,99.90
2018-10-06T04:35:19.257Z,99.90
2018-10-06T04:37:47.668Z,99.90
2018-10-06T04:40:16.033Z,99.90
2018-10-06T04:42:44.581Z,99.90
2018-10-06T04:45:13.049Z,99.90
2018-10-06T04:47:41.424Z,99.90
2018-10-06T04:50:09.769Z,99.90
2018-10-06T04:52:38.179Z,99.90
2018-10-06T04:55:06.590Z,99.90
2018-10-06T04:57:35.041Z,99.90
2018-10-06T05:00:03.673Z,99.90
2018-10-06T05:02:32.205Z,99.90
2018-10-06T05:05:00.640Z,99.90
2018-10-06T05:07:29.071Z,99.90
2018-10-06T05:09:57.527Z,99.90
2018-10-06T05:12:25.917Z,99.90
2018-10-06T05:14:54.346Z,99.90
2018-10-06T05:17:23.610Z,99.90
2018-10-06T05:19:52.130Z,99.90
2018-10-06T05:22:20.358Z,99.90
2018-10-06T05:24:48.637Z,99.90
2018-10-06T05:27:16.969Z,99.90
2018-10-06T05:29:45.449Z,99.90
2018-10-06T05:32:13.647Z,99.90
2018-10-06T05:34:41.925Z,99.90
2018-10-06T05:37:10.420Z,99.90
2018-10-06T05:39:39.149Z,99.90
2018-10-06T05:42:07.688Z,99.90
2018-10-06T05:44:36.212Z,99.90
2018-10-06T05:47:04.838Z,99.90
2018-10-06T05:49:33.167Z,99.90
2018-10-06T05:52:01.796Z,99.90
2018-10-06T05:54:30.278Z,99.90
2018-10-06T05:56:58.801Z,99.90
2018-10-06T05:59:27.234Z,99.90
2018-10-06T06:01:55.624Z,99.90
2018-10-06T06:04:24.036Z,99.90
2018-10-06T06:06:52.451Z,99.90
2018-10-06T06:09:20.869Z,99.90
2018-10-06T06:11:49.243Z,99.90
2018-10-06T06:14:17.640Z,99.90
2018-10-06T06:16:46.031Z,99.90
2018-10-06T06:19:14.463Z,99.90
2018-10-06T06:21:42.849Z,99.90
2018-10-06T06:24:11.207Z,99.90
2018-10-06T06:26:39.680Z,99.90
2018-10-06T06:29:08.848Z,99.90
2018-10-06T06:31:37.478Z,99.90
2018-10-06T06:34:05.750Z,99.90
2018-10-06T06:36:33.959Z,99.90
2018-10-06T06:39:02.180Z,99.90
2018-10-06T06:41:30.625Z,99.90
2018-10-06T06:43:58.873Z,99.90
2018-10-06T06:46:27.104Z,99.90
2018-10-06T06:48:55.312Z,99.90
2018-10-06T06:51:23.886Z,99.90
2018-10-06T06:53:52.427Z,99.90
2018-10-06T06:56:20.637Z,99.90
2018-10-06T06:58:55.866Z,99.90
2018-10-06T07:01:24.460Z,99.90
2018-10-06T07:03:52.733Z,99.90
2018-10-06T07:06:21.350Z,99.90
2018-10-06T07:08:49.602Z,99.90
2018-10-06T07:11:18.405Z,99.90
2018-10-06T07:13:46.953Z,99.90
2018-10-06T07:16:15.636Z,99.90
2018-10-06T07:18:44.224Z,99.90
2018-10-06T07:21:12.781Z,99.90
2018-10-06T07:23:41.367Z,99.90
2018-10-06T07:26:09.568Z,99.90
2018-10-06T07:28:37.944Z,99.90
2018-10-06T07:31:06.231Z,99.90
2018-10-06T07:33:34.767Z,99.90
2018-10-06T07:36:03.772Z,99.90
2018-10-06T07:38:32.306Z,99.90
2018-10-06T07:41:00.841Z,99.90
2018-10-06T07:43:29.297Z,99.90
2018-10-06T07:45:57.690Z,99.90
2018-10-06T07:48:26.193Z,99.90
2018-10-06T07:50:54.656Z,99.90
2018-10-06T07:53:23.121Z,99.90
2018-10-06T07:55:51.740Z,99.90
2018-10-06T07:58:20.212Z,99.90
2018-10-06T08:00:48.529Z,99.90
2018-10-06T08:03:16.909Z,99.90
2018-10-06T08:05:45.354Z,99.90
2018-10-06T08:08:13.764Z,99.90
2018-10-06T08:10:42.259Z,99.90
2018-10-06T08:13:10.640Z,99.90
2018-10-06T08:15:39.102Z,99.90
2018-10-06T08:18:07.561Z,99.90
2018-10-06T08:20:35.986Z,99.90
2018-10-06T08:23:04.486Z,99.90
2018-10-06T08:25:32.943Z,99.90
2018-10-06T08:28:01.393Z,99.90
2018-10-06T08:30:29.915Z,99.90
2018-10-06T08:32:58.372Z,99.90
2018-10-06T08:35:26.836Z,99.90
2018-10-06T08:37:55.267Z,99.90
2018-10-06T08:40:23.666Z,99.90
2018-10-06T08:42:52.157Z,99.90
2018-10-06T08:45:20.450Z,99.90
2018-10-06T08:47:48.886Z,99.90
2018-10-06T08:50:17.347Z,99.90
2018-10-06T08:52:45.875Z,99.90
2018-10-06T08:55:15.110Z,99.90
2018-10-06T08:57:43.640Z,99.90
2018-10-06T09:00:12.149Z,99.90
2018-10-06T09:02:40.628Z,99.90
2018-10-06T09:05:09.031Z,99.90
2018-10-06T09:07:37.594Z,99.90
2018-10-06T09:10:06.341Z,99.90
2018-10-06T09:12:34.767Z,99.90
2018-10-06T09:15:03.337Z,99.90
2018-10-06T09:17:31.721Z,99.90
2018-10-06T09:20:00.203Z,99.90
2018-10-06T09:22:28.766Z,99.90
2018-10-06T09:24:57.117Z,99.90
2018-10-06T09:27:25.729Z,99.90
2018-10-06T09:29:54.164Z,99.90
2018-10-06T09:32:27.768Z,99.90
2018-10-06T09:34:56.950Z,99.90
2018-10-06T09:37:25.377Z,99.90
2018-10-06T09:39:54.013Z,99.90
2018-10-06T09:42:22.818Z,99.90
2018-10-06T09:44:50.964Z,99.90
2018-10-06T09:47:19.433Z,99.90
2018-10-06T09:49:48.057Z,99.90
2018-10-06T09:52:16.670Z,99.90
2018-10-06T09:54:44.893Z,99.90
2018-10-06T09:57:13.568Z,99.90
2018-10-06T09:59:42.637Z,99.90
2018-10-06T10:02:15.160Z,99.90
2018-10-06T10:04:43.602Z,99.90
2018-10-06T10:07:12.167Z,99.90
2018-10-06T10:09:40.638Z,99.90
2018-10-06T10:12:09.797Z,99.90
2018-10-06T10:14:37.992Z,99.90
2018-10-06T10:17:06.664Z,99.90
2018-10-06T10:19:35.390Z,99.90
2018-10-06T10:22:04.236Z,99.90
2018-10-06T10:24:32.403Z,99.90
2018-10-06T10:27:00.903Z,99.90
2018-10-06T10:29:29.821Z,99.90
2018-10-06T10:31:59.157Z,99.90
2018-10-06T10:34:27.824Z,99.90
2018-10-06T10:36:56.627Z,99.90
2018-10-06T10:39:31.693Z,99.90
2018-10-06T10:41:59.994Z,99.90
2018-10-06T10:44:28.559Z,99.90
2018-10-06T10:46:57.085Z,99.90
2018-10-06T10:49:25.603Z,99.90
2018-10-06T10:51:53.986Z,99.90
2018-10-06T10:54:22.359Z,99.90
2018-10-06T10:56:50.747Z,99.90
2018-10-06T10:59:19.303Z,99.90
2018-10-06T11:01:47.639Z,99.90
2018-10-06T11:04:16.064Z,99.90
2018-10-06T11:06:44.528Z,99.90
2018-10-06T11:09:12.906Z,99.90
2018-10-06T11:11:41.307Z,99.90
2018-10-06T11:14:09.766Z,99.90
2018-10-06T11:16:38.154Z,99.90
2018-10-06T11:19:06.558Z,99.90
2018-10-06T11:21:34.980Z,99.90
2018-10-06T11:24:03.655Z,99.90
2018-10-06T11:26:32.248Z,99.90
2018-10-06T11:29:00.640Z,99.90
2018-10-06T11:31:29.037Z,99.90
2018-10-06T11:33:57.546Z,99.50
2018-10-06T11:36:26.076Z,99.90
2018-10-06T11:38:54.663Z,99.40
2018-10-06T11:41:23.056Z,99.90
2018-10-06T11:43:51.572Z,99.90
2018-10-06T11:46:19.992Z,99.90
2018-10-06T11:48:48.361Z,99.90
2018-10-06T11:51:16.794Z,99.90
2018-10-06T11:53:45.198Z,99.90
2018-10-06T11:57:38.128Z,99.20
2018-10-06T12:00:06.980Z,99.50
2018-10-06T12:02:35.460Z,98.80
2018-10-06T12:05:03.892Z,99.90
2018-10-06T12:07:32.504Z,98.90
2018-10-06T12:10:01.027Z,98.80
2018-10-06T12:12:29.720Z,99.90
2018-10-06T12:14:57.928Z,99.40
2018-10-06T12:17:26.444Z,99.90
2018-10-06T12:19:54.628Z,98.50
2018-10-06T12:22:22.842Z,99.90
2018-10-06T12:24:51.044Z,99.00
2018-10-06T12:27:19.578Z,99.10
2018-10-06T12:29:47.788Z,97.10
2018-10-06T12:32:16.487Z,98.50
2018-10-06T12:34:45.132Z,97.80
2018-10-06T12:37:13.605Z,97.20
2018-10-06T12:39:42.261Z,98.00
2018-10-06T12:42:10.793Z,97.80
2018-10-06T12:44:39.452Z,96.70
2018-10-06T12:47:08.292Z,96.80
2018-10-06T12:49:36.656Z,97.60
2018-10-06T12:52:05.557Z,97.60
2018-10-06T12:54:33.815Z,97.20
2018-10-06T12:57:02.360Z,97.80
2018-10-06T12:59:38.161Z,96.70
2018-10-06T13:02:06.681Z,96.20
2018-10-06T13:04:35.581Z,95.70
2018-10-06T13:07:04.361Z,95.90
2018-10-06T13:09:32.592Z,96.30
2018-10-06T13:12:00.897Z,96.60
2018-10-06T13:14:29.064Z,97.90
2018-10-06T13:16:59.278Z,97.60
2018-10-06T13:19:27.873Z,97.20
2018-10-06T13:21:56.581Z,97.10
2018-10-06T13:24:25.018Z,98.20
2018-10-06T13:26:53.464Z,97.50
2018-10-06T13:29:21.728Z,97.60
2018-10-06T13:31:50.300Z,97.50
2018-10-06T13:34:18.754Z,96.50
2018-10-06T13:36:47.426Z,96.20
2018-10-06T13:39:15.837Z,97.10
2018-10-06T13:41:44.230Z,96.30
2018-10-06T13:44:12.741Z,96.80
2018-10-06T13:46:41.163Z,96.70
2018-10-06T13:49:09.497Z,96.90
2018-10-06T13:51:37.885Z,97.30
2018-10-06T13:54:06.309Z,96.90
2018-10-06T13:56:34.801Z,96.40
2018-10-06T13:59:03.180Z,96.50
2018-10-06T14:01:31.695Z,96.50
2018-10-06T14:04:00.137Z,96.50
2018-10-06T14:06:28.574Z,96.90
2018-10-06T14:08:56.924Z,96.30
2018-10-06T14:11:25.396Z,97.00
2018-10-06T14:13:53.779Z,97.50
2018-10-06T14:16:22.283Z,96.40
2018-10-06T14:18:50.661Z,97.10
2018-10-06T14:21:19.233Z,97.70
2018-10-06T14:23:47.682Z,97.90
2018-10-06T14:26:16.114Z,98.00
2018-10-06T14:28:44.460Z,98.90
2018-10-06T14:31:12.859Z,98.60
2018-10-06T14:33:41.289Z,98.80
2018-10-06T14:36:09.704Z,98.40
2018-10-06T14:38:38.177Z,98.70
2018-10-06T14:41:06.549Z,99.00
2018-10-06T14:43:34.995Z,98.70
2018-10-06T14:46:03.513Z,98.60
2018-10-06T14:48:31.907Z,99.10
2018-10-06T14:51:00.352Z,99.70
2018-10-06T14:53:28.841Z,99.90
2018-10-06T14:55:57.225Z,99.90
2018-10-06T14:58:25.606Z,99.90
2018-10-06T15:00:53.964Z,99.90
2018-10-06T15:03:22.424Z,99.90
2018-10-06T15:05:50.832Z,99.90
2018-10-06T15:08:19.319Z,99.90
2018-10-06T15:10:47.730Z,99.90
2018-10-06T15:13:16.206Z,99.90
2018-10-06T15:15:44.560Z,99.90
2018-10-06T15:18:12.993Z,99.90
2018-10-06T15:20:41.485Z,99.90
2018-10-06T15:23:10.017Z,99.90
2018-10-06T15:25:38.531Z,99.90
2018-10-06T15:28:07.149Z,99.90
2018-10-06T15:30:35.588Z,99.90
2018-10-06T15:33:04.008Z,99.90
2018-10-06T15:35:32.427Z,99.90
2018-10-06T15:38:00.782Z,99.90
2018-10-06T15:40:29.248Z,99.90
2018-10-06T15:42:57.732Z,99.90
2018-10-06T15:45:26.077Z,99.90
2018-10-06T15:47:54.439Z,99.90
2018-10-06T15:50:22.816Z,99.90
2018-10-06T15:52:51.576Z,99.90
2018-10-06T15:55:19.922Z,99.90
2018-10-06T15:57:48.313Z,99.90
2018-10-06T16:00:16.702Z,99.90
2018-10-06T16:02:45.173Z,99.90
2018-10-06T16:05:13.532Z,99.90
2018-10-06T16:07:41.940Z,99.90
2018-10-06T16:10:10.400Z,99.90
2018-10-06T16:12:38.811Z,99.90
2018-10-06T16:15:07.228Z,99.90
2018-10-06T16:17:35.659Z,99.90
2018-10-06T16:20:04.009Z,99.90
2018-10-06T16:22:32.606Z,99.90
2018-10-06T16:25:01.166Z,99.90
2018-10-06T16:27:29.667Z,99.90
2018-10-06T16:29:58.020Z,99.90
2018-10-06T16:32:26.541Z,99.90
2018-10-06T16:34:55.029Z,99.90
2018-10-06T16:37:23.820Z,99.90
2018-10-06T16:39:52.212Z,99.90
2018-10-06T16:42:20.613Z,99.90
2018-10-06T16:44:49.117Z,99.90
2018-10-06T16:47:17.988Z,99.90
2018-10-06T16:49:47.583Z,99.90
2018-10-06T16:52:16.272Z,99.90
2018-10-06T16:54:44.463Z,99.90
2018-10-06T16:57:12.673Z,99.90
2018-10-06T16:59:41.330Z,99.90
2018-10-06T17:02:10.044Z,99.90
2018-10-06T17:04:38.571Z,99.90
2018-10-06T17:07:06.982Z,99.90
2018-10-06T17:09:35.404Z,99.90
2018-10-06T17:12:03.778Z,99.90
2018-10-06T17:14:32.102Z,99.90
2018-10-06T17:17:00.737Z,99.90
2018-10-06T17:19:29.441Z,99.90
2018-10-06T17:21:57.823Z,99.90
2018-10-06T17:24:26.236Z,99.90
2018-10-06T17:26:54.654Z,99.90
2018-10-06T17:29:23.514Z,99.90
2018-10-06T17:31:52.336Z,99.90
2018-10-06T17:34:20.860Z,99.90
2018-10-06T17:36:49.341Z,99.90
2018-10-06T17:39:17.775Z,99.90
2018-10-06T17:41:46.531Z,99.90
2018-10-06T17:44:15.263Z,99.90
2018-10-06T17:46:43.867Z,99.90
2018-10-06T17:49:12.601Z,99.90
2018-10-06T17:54:13.560Z,99.90
2018-10-06T17:56:42.132Z,99.90
2018-10-06T17:59:10.847Z,99.90
2018-10-06T18:01:39.568Z,99.90
2018-10-06T18:04:08.108Z,99.90
2018-10-06T18:06:36.305Z,99.90
2018-10-06T18:09:08.899Z,99.90
2018-10-06T18:11:37.337Z,99.90
2018-10-06T18:14:05.561Z,99.90
2018-10-06T18:16:34.932Z,99.90
2018-10-06T18:19:03.391Z,99.90
2018-10-06T18:21:32.059Z,99.90
2018-10-06T18:24:00.341Z,99.90
2018-10-06T18:26:28.836Z,99.90
2018-10-06T18:28:57.316Z,99.90
2018-10-06T18:31:26.044Z,99.90
2018-10-06T18:33:54.804Z,99.90
2018-10-06T18:36:23.075Z,99.90
2018-10-06T18:38:51.565Z,99.90
2018-10-06T18:41:20.207Z,99.90
2018-10-06T18:43:48.915Z,99.90
2018-10-06T18:46:18.063Z,99.90
2018-10-06T18:48:46.353Z,99.90
2018-10-06T18:51:14.936Z,99.90
2018-10-06T18:53:44.487Z,99.90
2018-10-06T18:56:13.760Z,99.90
2018-10-06T18:58:42.487Z,99.90
2018-10-06T19:01:11.015Z,99.90
2018-10-06T19:03:39.559Z,99.90
2018-10-06T19:06:07.889Z,99.90
2018-10-06T19:08:36.262Z,99.90
2018-10-06T19:11:04.681Z,99.90
2018-10-06T19:13:33.054Z,99.90
2018-10-06T19:16:01.541Z,99.90
2018-10-06T19:18:29.943Z,99.90
2018-10-06T19:20:58.389Z,99.90
2018-10-06T19:23:26.728Z,99.90
2018-10-06T19:25:56.281Z,99.90
2018-10-06T19:28:25.025Z,99.90
2018-10-06T19:30:53.641Z,99.90
2018-10-06T19:33:22.183Z,99.90
2018-10-06T19:35:50.655Z,99.90
2018-10-06T19:38:19.138Z,99.90
2018-10-06T19:40:47.507Z,99.90
2018-10-06T19:43:15.903Z,99.90
2018-10-06T19:45:44.334Z,99.90
2018-10-06T19:48:12.789Z,99.90
2018-10-06T19:50:41.188Z,99.90
2018-10-06T19:53:09.502Z,99.90
2018-10-06T19:55:38.028Z,99.90
2018-10-06T19:58:06.563Z,99.90
2018-10-06T20:00:34.945Z,99.90
2018-10-06T20:03:03.444Z,99.90
2018-10-06T20:05:31.955Z,99.90
2018-10-06T20:08:00.369Z,99.90
2018-10-06T20:10:28.716Z,99.90
2018-10-06T20:12:57.250Z,99.90
2018-10-06T20:15:25.678Z,99.90
2018-10-06T20:17:54.054Z,99.90
2018-10-06T20:20:22.503Z,99.90
2018-10-06T20:22:50.890Z,99.90
2018-10-06T20:25:19.241Z,99.90
2018-10-06T20:27:47.705Z,99.90
2018-10-06T20:30:16.052Z,99.90
2018-10-06T20:32:44.453Z,99.90
2018-10-06T20:35:12.911Z,99.90
2018-10-06T20:37:41.334Z,99.90
2018-10-06T20:40:09.835Z,99.90
2018-10-06T20:42:38.244Z,99.90
2018-10-06T20:45:06.624Z,99.90
2018-10-06T20:47:35.083Z,99.90
2018-10-06T20:50:03.605Z,99.90
2018-10-06T20:52:32.074Z,99.90
2018-10-06T20:55:00.478Z,99.90
2018-10-06T20:57:28.889Z,99.90
2018-10-06T20:59:57.301Z,99.90
2018-10-06T21:02:25.659Z,99.90
2018-10-06T21:04:54.050Z,99.90
2018-10-06T21:07:22.534Z,99.90
2018-10-06T21:09:50.929Z,99.90
2018-10-06T21:12:19.323Z,99.90
2018-10-06T21:14:47.728Z,99.90
2018-10-06T21:17:16.092Z,99.90
2018-10-06T21:19:44.524Z,99.90
2018-10-06T21:22:12.894Z,99.90
2018-10-06T21:24:41.355Z,99.90
2018-10-06T21:27:09.828Z,99.90
2018-10-06T21:29:38.449Z,99.90
2018-10-06T21:32:06.747Z,99.90
2018-10-06T21:34:35.416Z,99.90
2018-10-06T21:37:03.787Z,99.90
2018-10-06T21:39:32.192Z,99.90
2018-10-06T21:42:00.579Z,99.90
2018-10-06T21:44:28.975Z,99.90
2018-10-06T21:46:57.774Z,99.90
2018-10-06T21:49:26.212Z,99.90
2018-10-06T21:51:54.813Z,99.90
2018-10-06T21:54:23.794Z,99.90
2018-10-06T21:56:52.305Z,99.90
2018-10-06T21:59:20.704Z,99.90
2018-10-06T22:01:49.077Z,99.90
2018-10-06T22:04:17.401Z,99.90
2018-10-06T22:06:45.793Z,99.90
2018-10-06T22:09:14.161Z,99.90
2018-10-06T22:11:42.650Z,99.90
2018-10-06T22:14:11.104Z,99.90
2018-10-06T22:16:39.492Z,99.90
2018-10-06T22:19:08.013Z,99.90
2018-10-06T22:21:36.418Z,99.90
2018-10-06T22:24:04.809Z,99.90
2018-10-06T22:26:33.315Z,99.90
2018-10-06T22:29:01.826Z,99.90
2018-10-06T22:31:30.190Z,99.90
2018-10-06T22:33:58.590Z,99.90
2018-10-06T22:36:27.009Z,99.90
2018-10-06T22:38:55.378Z,99.90
2018-10-06T22:41:23.788Z,99.90
2018-10-06T22:43:58.661Z,99.90
2018-10-06T22:46:27.008Z,99.90
2018-10-06T22:48:55.410Z,99.90
2018-10-06T22:51:23.785Z,99.90
2018-10-06T22:53:52.218Z,99.90
2018-10-06T22:56:20.676Z,99.90
2018-10-06T22:58:49.149Z,99.90
2018-10-06T23:01:17.609Z,99.90
2018-10-06T23:03:45.962Z,99.90
2018-10-06T23:06:14.419Z,99.90
2018-10-06T23:08:42.849Z,99.90
2018-10-06T23:11:11.242Z,99.90
2018-10-06T23:13:39.691Z,99.90
2018-10-06T23:16:08.151Z,99.90
2018-10-06T23:18:36.530Z,99.90
2018-10-06T23:21:04.949Z,99.90
2018-10-06T23:23:33.618Z,99.90
2018-10-06T23:26:02.048Z,99.90
2018-10-06T23:28:30.544Z,99.90
2018-10-06T23:30:58.993Z,99.90
2018-10-06T23:33:27.362Z,99.90
2018-10-06T23:35:55.752Z,99.90
2018-10-06T23:38:24.308Z,99.90
2018-10-06T23:40:52.707Z,99.90
2018-10-06T23:43:21.104Z,99.90
2018-10-06T23:45:49.558Z,99.90
2018-10-06T23:48:17.962Z,99.90
2018-10-06T23:50:46.377Z,99.90
2018-10-06T23:53:14.833Z,99.90
2018-10-06T23:55:43.268Z,99.90
2018-10-06T23:58:11.699Z,99.90
